Time;durP1;ratioP1;P1;durP2;ratioP2;P2;SDS_P1;SDS_P2;PMS_P1;PMS_P2;Temp;Humidity;BMP_temperature;BMP_pressure;BME280_temperature;BME280_humidity;BME280_pressure;Samples;Min_cycle;Max_cycle;Signal;HPM_P1;HPM_P2
2022/11/29 00:01:27;;;;;;;2.83;2.53;;;;;;;4.58;61.59;95110.97;4996091;28;20226;-68
2022/11/29 00:03:53;;;;;;;3.10;2.47;;;;;;;4.60;61.73;95109.06;5006553;28;20287;-68
2022/11/29 00:06:22;;;;;;;2.47;2.27;;;;;;;4.43;61.72;95110.28;5003920;28;20318;-68
2022/11/29 00:08:48;;;;;;;2.80;2.60;;;;;;;4.61;61.53;95105.50;5002528;28;20194;-68
2022/11/29 00:14:01;;;;;;;2.70;2.50;;;;;;;4.57;61.22;95106.66;4999960;28;20218;-68
2022/11/29 00:16:26;;;;;;;2.63;2.30;;;;;;;4.52;61.65;95114.03;5001505;28;20191;-69
2022/11/29 00:18:52;;;;;;;3.07;2.77;;;;;;;4.42;61.87;95119.88;5002436;28;20210;-69
2022/11/29 00:21:17;;;;;;;2.87;2.67;;;;;;;4.51;62.03;95114.94;5000564;28;20195;-69
2022/11/29 00:23:42;;;;;;;2.80;2.60;;;;;;;4.42;61.92;95114.69;5004513;28;20196;-69
2022/11/29 00:26:09;;;;;;;3.00;2.70;;;;;;;4.50;62.04;95116.72;5003514;28;20286;-69
2022/11/29 00:28:35;;;;;;;3.90;2.87;;;;;;;4.42;61.64;95116.44;4999284;28;20297;-69
2022/11/29 00:31:19;;;;;;;3.07;2.63;;;;;;;4.48;62.06;95116.00;4997527;28;20197;-69
2022/11/29 00:33:45;;;;;;;2.83;2.63;;;;;;;4.49;61.87;95122.03;5005467;28;20194;-68
2022/11/29 00:36:11;;;;;;;2.90;2.70;;;;;;;4.39;61.65;95109.69;5011381;28;20193;-68
2022/11/29 00:38:36;;;;;;;3.03;2.73;;;;;;;4.40;62.19;95119.16;4998167;28;20237;-69
2022/11/29 00:41:02;;;;;;;3.00;2.40;;;;;;;4.37;62.60;95115.97;4998337;28;20195;-69
2022/11/29 00:43:27;;;;;;;3.63;2.70;;;;;;;4.47;61.56;95111.75;4994242;28;20657;-69
2022/11/29 00:45:53;;;;;;;2.60;2.40;;;;;;;4.40;62.27;95116.56;5009145;28;20195;-69
2022/11/29 00:48:18;;;;;;;2.50;2.30;;;;;;;4.46;61.54;95117.06;5000247;28;20183;-69
2022/11/29 00:50:43;;;;;;;2.83;2.63;;;;;;;4.27;62.19;95118.38;4998969;28;20206;-70
2022/11/29 00:53:09;;;;;;;2.70;2.50;;;;;;;4.23;62.45;95123.94;5006813;28;20199;-69
2022/11/29 00:55:34;;;;;;;2.77;2.47;;;;;;;4.34;62.42;95111.81;5004341;28;20195;-70
2022/11/29 00:58:00;;;;;;;3.17;2.60;;;;;;;4.46;62.67;95117.88;5001185;28;20253;-69
2022/11/29 01:00:26;;;;;;;3.20;2.40;;;;;;;4.62;61.59;95123.66;4996704;28;20204;-69
2022/11/29 01:02:51;;;;;;;3.20;2.23;;;;;;;4.54;61.59;95117.31;4999181;28;20196;-69
2022/11/29 01:05:16;;;;;;;2.13;1.90;;;;;;;4.45;61.29;95112.78;5003124;28;20202;-69
2022/11/29 01:07:42;;;;;;;2.87;2.03;;;;;;;4.59;61.28;95115.22;4984837;28;20226;-70
2022/11/29 01:10:08;;;;;;;1.73;1.60;;;;;;;4.49;61.77;95109.00;5007756;28;20199;-70
2022/11/29 01:12:37;;;;;;;2.07;1.87;;;;;;;4.46;61.53;95111.84;4994362;28;20207;-69
2022/11/29 01:15:05;;;;;;;1.77;1.67;;;;;;;4.40;61.08;95108.75;5005738;28;20394;-70
2022/11/29 01:17:30;;;;;;;1.80;1.70;;;;;;;4.33;60.91;95102.34;4998473;28;20212;-69
2022/11/29 01:19:55;;;;;;;2.30;1.50;;;;;;;4.40;61.58;95110.53;4999621;28;20322;-69
2022/11/29 01:22:21;;;;;;;1.70;1.60;;;;;;;4.47;61.31;95105.72;5006748;28;20350;-69
2022/11/29 01:24:46;;;;;;;1.70;1.60;;;;;;;4.46;61.20;95111.84;5013823;28;20296;-70
2022/11/29 01:27:12;;;;;;;1.60;1.50;;;;;;;4.39;61.04;95104.50;4997684;28;20284;-70
2022/11/29 01:29:38;;;;;;;1.97;1.60;;;;;;;4.38;60.40;95096.78;4999091;28;20214;-69
2022/11/29 01:32:03;;;;;;;1.30;1.20;;;;;;;4.34;60.38;95093.59;4998993;28;20264;-68
2022/11/29 01:34:29;;;;;;;1.53;1.43;;;;;;;4.33;61.15;95093.69;5000780;28;20211;-69
2022/11/29 01:36:54;;;;;;;1.63;1.30;;;;;;;4.43;60.94;95090.28;5000935;28;20198;-69
2022/11/29 01:39:19;;;;;;;1.77;1.50;;;;;;;4.39;60.80;95093.25;4999539;28;20235;-69
2022/11/29 01:41:45;;;;;;;1.63;1.53;;;;;;;4.25;61.18;95088.19;4998916;28;20297;-69
2022/11/29 01:44:10;;;;;;;1.50;1.40;;;;;;;4.27;61.59;95084.53;4996228;28;20183;-69
2022/11/29 01:46:38;;;;;;;1.60;1.50;;;;;;;4.23;61.43;95088.34;4999990;28;20206;-69
2022/11/29 01:49:21;;;;;;;2.30;1.60;;;;;;;4.42;61.03;95088.63;5003360;28;20510;-68
2022/11/29 01:52:01;;;;;;;1.73;1.63;;;;;;;4.38;60.96;95079.41;5004629;28;20195;-69
2022/11/29 01:54:28;;;;;;;1.83;1.67;;;;;;;4.38;61.25;95075.94;4991774;28;20191;-69
2022/11/29 01:56:54;;;;;;;2.00;1.80;;;;;;;4.37;61.52;95072.53;4993536;28;20219;-69
2022/11/29 01:59:24;;;;;;;2.17;1.97;;;;;;;4.51;61.26;95070.69;5004390;28;20313;-69
2022/11/29 02:01:50;;;;;;;2.70;2.10;;;;;;;4.50;61.69;95076.84;5001509;28;20192;-70
2022/11/29 02:04:17;;;;;;;2.73;2.53;;;;;;;4.46;62.35;95067.59;5005186;28;20191;-69
2022/11/29 02:06:43;;;;;;;3.10;2.80;;;;;;;4.48;62.41;95070.91;5004639;28;20305;-69
2022/11/29 02:09:21;;;;;;;3.63;2.93;;;;;;;4.42;62.86;95073.03;4999209;28;20337;-69
2022/11/29 02:11:55;;;;;;;3.10;2.80;;;;;;;4.43;62.95;95073.84;5000017;28;20191;-69
2022/11/29 02:14:26;;;;;;;3.23;2.97;;;;;;;4.33;63.09;95063.28;5002428;28;20317;-69
2022/11/29 02:17:07;;;;;;;2.90;2.60;;;;;;;4.38;62.67;95074.19;5003730;28;20217;-69
2022/11/29 02:19:41;;;;;;;3.50;3.20;;;;;;;4.43;62.85;95071.25;5001009;28;20250;-70
2022/11/29 02:22:15;;;;;;;3.53;3.23;;;;;;;4.24;63.13;95066.56;5005253;28;20217;-68
2022/11/29 02:25:08;;;;;;;3.00;2.70;;;;;;;4.19;63.53;95060.84;4999466;28;20194;-69
2022/11/29 02:28:05;;;;;;;2.83;2.50;;;;;;;4.32;63.13;95058.19;4994563;28;20199;-69
2022/11/29 02:30:41;;;;;;;2.60;2.40;;;;;;;4.27;62.93;95063.72;4995384;28;20298;-68
2022/11/29 02:33:45;;;;;;;2.60;2.40;;;;;;;4.32;63.53;95071.19;5015161;28;20180;-69
2022/11/29 02:36:17;;;;;;;3.03;2.67;;;;;;;4.31;62.99;95062.56;4998592;28;20433;-69
2022/11/29 02:38:58;;;;;;;2.60;2.10;;;;;;;4.32;62.82;95074.63;4992982;28;20252;-69
2022/11/29 02:41:41;;;;;;;2.30;2.10;;;;;;;4.24;62.61;95074.38;4999651;28;20202;-68
2022/11/29 02:44:26;;;;;;;2.23;1.90;;;;;;;4.32;62.72;95072.03;4998647;28;20198;-69
2022/11/29 02:47:04;;;;;;;1.90;1.70;;;;;;;4.37;61.96;95082.94;5006165;28;20187;-69
2022/11/29 02:49:59;;;;;;;1.50;1.40;;;;;;;4.40;61.58;95082.72;5001410;28;20203;-69
2022/11/29 02:52:56;;;;;;;1.60;1.50;;;;;;;4.30;61.47;95084.31;4994853;28;20195;-71
2022/11/29 02:55:38;;;;;;;1.60;1.50;;;;;;;4.37;61.43;95085.53;5004695;28;20197;-70
2022/11/29 02:58:30;;;;;;;1.40;1.30;;;;;;;4.28;61.48;95080.19;5002356;28;20210;-70
2022/11/29 03:01:11;;;;;;;1.70;1.60;;;;;;;4.28;61.37;95081.03;5006003;28;20671;-68
2022/11/29 03:03:45;;;;;;;1.73;1.63;;;;;;;4.25;61.44;95081.25;5001465;28;20187;-70
2022/11/29 03:06:37;;;;;;;1.60;1.50;;;;;;;4.29;61.79;95074.88;5018958;28;20643;-70
2022/11/29 03:09:11;;;;;;;1.77;1.60;;;;;;;4.28;61.65;95075.81;5003525;28;20282;-70
2022/11/29 03:11:45;;;;;;;1.60;1.50;;;;;;;4.29;61.79;95074.88;5007345;28;20238;-69
2022/11/29 03:14:13;;;;;;;1.70;1.60;;;;;;;4.37;61.78;95080.34;4994684;28;20246;-70
2022/11/29 03:16:45;;;;;;;2.63;1.50;;;;;;;4.37;61.23;95080.34;4996162;28;20668;-71
2022/11/29 03:19:32;;;;;;;2.17;1.77;;;;;;;4.33;61.59;95089.31;5007055;28;20381;-70
2022/11/29 03:22:20;;;;;;;1.40;1.30;;;;;;;4.40;61.19;95093.13;5008054;28;20657;-70
2022/11/29 03:25:00;;;;;;;1.77;1.67;;;;;;;4.43;61.65;95092.88;5016661;28;20188;-69
2022/11/29 03:27:39;;;;;;;1.60;1.50;;;;;;;4.27;61.83;95089.75;4998129;28;20201;-71
2022/11/29 03:30:17;;;;;;;1.80;1.70;;;;;;;4.19;62.27;95092.91;5015784;28;20183;-70
2022/11/29 03:33:08;;;;;;;2.77;1.60;;;;;;;4.12;62.45;95086.50;5002871;28;20199;-70
2022/11/29 03:35:38;;;;;;;2.33;1.70;;;;;;;4.26;62.20;95090.72;5001774;28;20194;-70
2022/11/29 03:38:19;;;;;;;2.13;1.93;;;;;;;4.25;62.31;95089.06;5004062;28;20235;-69
2022/11/29 03:40:54;;;;;;;1.60;1.50;;;;;;;4.30;62.08;95088.69;5003755;28;20290;-69
2022/11/29 03:43:29;;;;;;;2.10;1.90;;;;;;;4.24;62.08;95092.59;5004511;28;20183;-69
2022/11/29 03:46:07;;;;;;;1.90;1.80;;;;;;;4.34;61.67;95085.78;5003305;28;20202;-69
2022/11/29 03:48:38;;;;;;;1.83;1.73;;;;;;;4.34;61.70;95088.38;5000367;28;20183;-69
2022/11/29 03:51:14;;;;;;;2.33;2.10;;;;;;;4.33;61.80;95086.72;5005815;28;20242;-70
2022/11/29 03:54:01;;;;;;;2.57;2.03;;;;;;;4.27;62.00;95084.53;5001485;28;20210;-69
2022/11/29 03:56:35;;;;;;;1.90;1.80;;;;;;;4.27;62.08;95083.72;4999410;28;20199;-69
2022/11/29 03:59:26;;;;;;;2.00;1.90;;;;;;;4.24;62.48;95092.59;5007729;28;20244;-69
2022/11/29 04:02:00;;;;;;;2.10;1.90;;;;;;;4.21;62.51;95087.59;4995136;28;20273;-69
2022/11/29 04:04:41;;;;;;;2.30;2.10;;;;;;;4.24;62.78;95083.94;4998030;28;20191;-69
2022/11/29 04:07:39;;;;;;;2.70;2.33;;;;;;;4.18;63.16;95075.66;5001043;28;20197;-69
2022/11/29 04:10:20;;;;;;;4.10;2.50;;;;;;;4.16;63.10;95087.94;5008430;28;20182;-69
2022/11/29 04:12:51;;;;;;;2.20;2.00;;;;;;;4.25;63.15;95086.44;5007629;28;20219;-70
2022/11/29 04:15:22;;;;;;;2.97;2.50;;;;;;;4.31;63.16;95087.78;5007273;28;20194;-69
2022/11/29 04:18:18;;;;;;;3.60;2.60;;;;;;;4.43;62.63;95089.47;5001140;28;20268;-69
2022/11/29 04:21:09;;;;;;;2.67;2.47;;;;;;;4.17;62.87;95080.94;5003433;28;20191;-69
2022/11/29 04:24:04;;;;;;;2.60;2.40;;;;;;;4.23;63.24;95097.91;5002465;28;20377;-69
2022/11/29 04:26:48;;;;;;;2.80;2.50;;;;;;;4.15;63.54;95090.66;5002909;28;20195;-69
2022/11/29 04:29:20;;;;;;;2.43;2.23;;;;;;;4.20;63.30;95093.75;5001002;28;20202;-69
2022/11/29 04:32:20;;;;;;;2.53;2.33;;;;;;;4.27;63.23;95105.38;5003917;28;20194;-70
2022/11/29 04:34:51;;;;;;;2.73;2.33;;;;;;;4.22;63.51;95098.84;5004611;28;20183;-69
2022/11/29 04:38:02;;;;;;;2.73;2.40;;;;;;;4.31;63.34;95096.41;5016755;28;20230;-70
2022/11/29 04:40:42;;;;;;;2.60;2.40;;;;;;;4.34;63.36;95098.78;5031634;28;20198;-69
2022/11/29 04:43:47;;;;;;;2.50;2.30;;;;;;;4.28;63.21;95088.84;5018149;28;20189;-69
2022/11/29 04:46:22;;;;;;;2.27;1.90;;;;;;;4.38;62.69;95091.56;5025189;28;20193;-69
2022/11/29 04:48:59;;;;;;;2.57;2.30;;;;;;;4.29;62.53;95087.06;5032586;28;20208;-69
2022/11/29 04:51:43;;;;;;;3.13;2.40;;;;;;;4.27;63.47;95088.94;5031092;28;20210;-69
2022/11/29 04:54:15;;;;;;;2.60;2.40;;;;;;;4.27;63.07;95089.75;5026525;28;20281;-68
2022/11/29 04:56:45;;;;;;;2.70;2.03;;;;;;;4.27;63.16;95092.34;5023028;28;20195;-69
2022/11/29 04:59:19;;;;;;;2.47;2.27;;;;;;;4.38;62.94;95087.22;5019028;28;20297;-69
2022/11/29 05:01:57;;;;;;;3.47;2.40;;;;;;;4.41;63.00;95093.94;5031409;28;20193;-69
2022/11/29 05:04:38;;;;;;;4.77;3.00;;;;;;;4.27;63.28;95083.72;5023573;28;20196;-69
2022/11/29 05:07:28;;;;;;;2.20;2.00;;;;;;;4.39;63.23;95093.25;5030785;28;20198;-70
2022/11/29 05:10:12;;;;;;;2.30;2.10;;;;;;;4.36;63.11;95091.69;5030493;28;20194;-69
2022/11/29 05:12:44;;;;;;;2.40;2.20;;;;;;;4.41;63.18;95093.94;5031253;28;20186;-70
2022/11/29 05:15:44;;;;;;;2.93;2.60;;;;;;;4.36;63.34;95094.31;5031509;28;20178;-69
2022/11/29 05:18:42;;;;;;;3.37;2.60;;;;;;;4.38;62.91;95089.81;5025444;28;20206;-69
2022/11/29 05:21:18;;;;;;;3.50;2.43;;;;;;;4.37;62.76;95089.94;5039520;28;20189;-70
2022/11/29 05:23:53;;;;;;;3.77;2.37;;;;;;;4.31;63.07;95092.97;5031317;28;20226;-69
2022/11/29 05:26:27;;;;;;;2.40;2.20;;;;;;;4.36;63.01;95091.69;5023226;28;20276;-69
2022/11/29 05:29:02;;;;;;;2.23;2.03;;;;;;;4.43;62.54;95087.69;5031104;28;20224;-69
2022/11/29 05:32:10;;;;;;;3.40;1.90;;;;;;;4.32;62.48;95087.66;5030223;28;20194;-69
2022/11/29 05:34:57;;;;;;;3.07;2.10;;;;;;;4.25;62.67;95083.00;5041686;28;20304;-69
2022/11/29 05:37:43;;;;;;;2.80;2.50;;;;;;;4.27;62.33;95094.97;5026349;28;20221;-69
2022/11/29 05:40:12;;;;;;;3.83;2.13;;;;;;;4.43;62.58;95100.69;5046076;28;20209;-70
2022/11/29 05:42:47;;;;;;;1.83;1.73;;;;;;;4.42;62.26;95106.88;5028550;28;20196;-70
2022/11/29 05:45:29;;;;;;;4.00;2.13;;;;;;;4.34;62.06;95095.34;5032686;28;20197;-70
2022/11/29 05:48:18;;;;;;;2.37;2.10;;;;;;;4.52;61.81;95101.00;5013235;28;20186;-69
2022/11/29 05:51:17;;;;;;;2.00;1.87;;;;;;;4.41;62.23;95100.00;5024327;28;20400;-69
2022/11/29 05:53:51;;;;;;;3.63;2.10;;;;;;;4.43;61.76;95100.69;5026940;28;20233;-71
2022/11/29 05:56:54;;;;;;;3.33;1.80;;;;;;;4.35;62.06;95104.81;5026775;28;20295;-71
2022/11/29 05:59:26;;;;;;;4.57;2.10;;;;;;;4.35;61.95;95102.22;5024369;28;20213;-70
2022/11/29 06:02:00;;;;;;;2.00;1.90;;;;;;;4.39;62.30;95108.88;5020537;28;20190;-69
2022/11/29 06:04:56;;;;;;;1.90;1.80;;;;;;;4.37;62.14;95105.53;5020446;28;20208;-70
2022/11/29 06:07:25;;;;;;;2.30;2.10;;;;;;;4.36;62.26;95103.91;5029632;28;20190;-70
2022/11/29 06:10:23;;;;;;;2.27;2.07;;;;;;;4.40;62.02;95094.91;5019714;28;20270;-70
2022/11/29 06:13:12;;;;;;;2.30;2.10;;;;;;;4.51;61.90;95105.34;4982598;28;20211;-70
2022/11/29 06:15:41;;;;;;;2.93;1.70;;;;;;;4.49;62.06;95096.84;4962880;28;20196;-70
2022/11/29 06:18:42;;;;;;;5.20;2.17;;;;;;;4.68;61.43;95096.31;4976835;28;20230;-71
2022/11/29 06:21:21;;;;;;;2.33;2.10;;;;;;;4.64;61.29;95102.69;4893293;29;20214;-70
2022/11/29 06:23:57;;;;;;;6.30;2.13;;;;;;;4.57;62.04;95106.66;4897829;29;20225;-65
2022/11/29 06:27:01;;;;;;;4.50;2.03;;;;;;;4.65;62.05;95109.53;4893671;29;20222;-66
2022/11/29 06:29:41;;;;;;;3.13;2.20;;;;;;;4.61;61.88;95103.75;4898607;29;20292;-67
2022/11/29 06:32:44;;;;;;;2.60;2.33;;;;;;;4.64;61.70;95102.69;4898056;29;20230;-70
2022/11/29 06:35:33;;;;;;;5.20;2.20;;;;;;;4.73;61.48;95101.16;4898426;29;20186;-70
2022/11/29 06:38:07;;;;;;;3.00;1.97;;;;;;;4.77;60.85;95094.78;4898969;29;20313;-70
2022/11/29 06:40:32;;;;;;;3.37;2.07;;;;;;;4.74;60.75;95101.06;4882156;29;20212;-69
2022/11/29 06:42:58;;;;;;;2.17;1.90;;;;;;;4.78;60.38;95104.25;4867391;29;20217;-69
2022/11/29 06:45:24;;;;;;;3.53;1.83;;;;;;;4.84;60.67;95101.22;4897636;29;20254;-70
2022/11/29 06:48:05;;;;;;;7.03;2.50;;;;;;;4.87;60.51;95103.59;4897767;29;20206;-69
2022/11/29 06:50:36;;;;;;;5.17;2.43;;;;;;;4.97;60.13;95108.91;4935127;29;20217;-69
2022/11/29 06:53:21;;;;;;;3.60;2.00;;;;;;;4.92;60.24;95111.88;4917666;29;20201;-69
2022/11/29 06:55:57;;;;;;;5.43;2.30;;;;;;;4.92;60.09;95108.44;4932153;29;20330;-68
2022/11/29 06:59:10;;;;;;;4.43;2.57;;;;;;;4.95;60.37;95113.44;4986471;28;20231;-70
2022/11/29 07:01:49;;;;;;;3.20;2.23;;;;;;;4.93;60.94;95113.53;4917334;29;20233;-67
2022/11/29 07:04:47;;;;;;;2.73;2.10;;;;;;;4.91;60.31;95119.81;4914003;29;20292;-66
2022/11/29 07:07:18;;;;;;;4.30;2.30;;;;;;;5.02;60.17;95118.03;4905676;29;20206;-71
2022/11/29 07:09:45;;;;;;;5.77;2.27;;;;;;;5.09;60.21;95108.81;4912281;29;20210;-70
2022/11/29 07:12:11;;;;;;;4.90;2.30;;;;;;;5.06;60.61;95106.47;4906577;29;20782;-71
2022/11/29 07:14:37;;;;;;;2.70;2.37;;;;;;;5.08;60.35;95117.59;4919822;29;20361;-71
2022/11/29 07:17:11;;;;;;;3.37;2.17;;;;;;;5.12;60.06;95115.59;4922063;29;20209;-69
2022/11/29 07:19:42;;;;;;;2.87;2.00;;;;;;;5.09;59.56;95101.00;4925218;29;20231;-68
2022/11/29 07:22:32;;;;;;;2.67;2.10;;;;;;;5.09;59.32;95115.81;4926310;29;20204;-69
2022/11/29 07:25:30;;;;;;;4.00;2.10;;;;;;;5.09;60.03;95114.03;4904678;29;20249;-68
2022/11/29 07:28:11;;;;;;;4.60;2.90;;;;;;;5.23;59.70;95119.97;4924197;29;20237;-69
2022/11/29 07:30:40;;;;;;;5.33;2.60;;;;;;;5.27;59.51;95117.03;4916015;29;20238;-69
2022/11/29 07:33:39;;;;;;;3.97;2.90;;;;;;;5.23;58.94;95120.81;4923999;29;20205;-69
2022/11/29 07:36:23;;;;;;;3.97;3.10;;;;;;;5.21;59.12;95116.66;4973661;28;20269;-68
2022/11/29 07:38:58;;;;;;;2.80;2.50;;;;;;;5.34;59.04;95127.81;5002520;28;20235;-72
2022/11/29 07:41:40;;;;;;;6.37;2.63;;;;;;;5.40;58.29;95122.16;5000093;28;20221;-74
2022/11/29 07:44:53;;;;;;;3.27;2.43;;;;;;;5.29;58.17;95125.59;5005677;28;20191;-68
2022/11/29 07:47:18;;;;;;;3.30;2.30;;;;;;;5.36;58.40;95112.88;4917365;29;20194;-70
2022/11/29 07:49:44;;;;;;;5.13;2.47;;;;;;;5.47;58.59;95118.09;4907801;29;20212;-69
2022/11/29 07:52:15;;;;;;;2.30;1.80;;;;;;;5.57;57.88;95123.44;4923724;29;20230;-70
2022/11/29 07:54:41;;;;;;;4.30;2.13;;;;;;;5.55;57.92;95114.91;4913557;29;20288;-68
2022/11/29 07:57:06;;;;;;;2.20;2.00;;;;;;;5.68;57.52;95114.78;4929310;29;20301;-69
2022/11/29 07:59:31;;;;;;;4.03;2.07;;;;;;;5.72;57.63;95110.97;4912363;29;20225;-69
2022/11/29 08:01:58;;;;;;;3.10;2.63;;;;;;;5.57;57.92;95123.44;4911716;29;20313;-69
2022/11/29 08:04:23;;;;;;;4.80;2.73;;;;;;;5.60;58.05;95122.38;4910325;29;20201;-68
2022/11/29 08:06:49;;;;;;;3.93;2.23;;;;;;;5.56;57.90;95115.72;4905476;29;20194;-68
2022/11/29 08:09:14;;;;;;;2.80;1.90;;;;;;;5.65;57.92;95115.84;4927742;29;20229;-69
2022/11/29 08:11:40;;;;;;;2.53;2.17;;;;;;;5.63;58.53;95125.56;4915770;29;20201;-69
2022/11/29 08:14:05;;;;;;;2.30;2.03;;;;;;;5.41;59.19;95125.59;4910319;29;20312;-71
2022/11/29 08:16:31;;;;;;;6.03;2.73;;;;;;;5.40;59.27;95121.28;4909179;29;20193;-68
2022/11/29 08:18:56;;;;;;;6.77;2.00;;;;;;;5.60;58.86;95119.78;4984332;28;20231;-68
2022/11/29 08:21:22;;;;;;;2.73;2.23;;;;;;;5.58;59.18;95119.88;5007189;28;20195;-73
2022/11/29 08:23:49;;;;;;;1.63;1.53;;;;;;;5.64;58.47;95118.56;5007247;28;20222;-70
2022/11/29 08:26:16;;;;;;;2.63;1.93;;;;;;;5.63;59.06;95122.13;5013216;28;20202;-72
2022/11/29 08:28:41;;;;;;;3.13;1.80;;;;;;;5.90;58.63;95116.53;5006549;28;20196;-71
2022/11/29 08:31:10;;;;;;;4.60;2.10;;;;;;;5.77;58.47;95114.06;5007372;28;20191;-73
2022/11/29 08:33:38;;;;;;;2.67;2.10;;;;;;;5.97;58.07;95115.97;5004540;28;20184;-71
2022/11/29 08:36:16;;;;;;;3.43;1.73;;;;;;;5.94;57.55;95110.19;5007731;28;20211;-69
2022/11/29 08:38:43;;;;;;;5.87;2.40;;;;;;;6.10;57.66;95125.47;5009837;28;20261;-71
2022/11/29 08:41:12;;;;;;;3.50;2.33;;;;;;;6.04;58.02;95125.91;5006471;28;20207;-70
2022/11/29 08:43:38;;;;;;;4.23;1.87;;;;;;;6.19;57.90;95117.69;5004923;28;20277;-69
2022/11/29 08:46:03;;;;;;;2.13;1.90;;;;;;;6.16;57.71;95122.34;5003711;28;20282;-70
2022/11/29 08:48:28;;;;;;;4.00;2.20;;;;;;;6.13;57.84;95123.41;5006727;28;20187;-71
2022/11/29 08:50:55;;;;;;;5.07;2.50;;;;;;;5.85;58.77;95131.72;5002751;28;20205;-69
2022/11/29 08:56:05;;;;;;;2.53;1.83;;;;;;;6.08;58.22;95127.34;4997631;28;20367;-74
2022/11/29 08:58:30;;;;;;;4.73;2.13;;;;;;;6.03;58.69;95119.06;5017581;28;20223;-73
2022/11/29 09:00:56;;;;;;;2.70;1.83;;;;;;;6.22;57.94;95124.47;5007002;28;20269;-75
2022/11/29 09:06:08;;;;;;;3.03;2.50;;;;;;;6.36;57.42;95118.97;4998570;28;20234;-70
2022/11/29 09:08:34;;;;;;;5.10;2.03;;;;;;;6.29;58.41;95111.75;5008962;28;20194;-73
2022/11/29 09:10:59;;;;;;;3.70;2.30;;;;;;;6.26;57.85;95102.38;5008622;28;20187;-72
2022/11/29 09:13:25;;;;;;;3.47;2.03;;;;;;;6.17;58.51;95109.19;5009557;28;20218;-73
2022/11/29 09:15:50;;;;;;;4.13;2.40;;;;;;;6.32;57.78;95121.94;5006638;28;20192;-74
2022/11/29 09:18:15;;;;;;;3.07;2.23;;;;;;;6.06;58.71;95114.41;5005466;28;20211;-75
2022/11/29 09:20:42;;;;;;;3.57;2.27;;;;;;;6.27;58.46;95113.66;5000894;28;20192;-73
2022/11/29 09:23:08;;;;;;;3.97;2.37;;;;;;;6.46;58.01;95111.22;5006805;28;20277;-69
2022/11/29 09:25:34;;;;;;;5.40;2.63;;;;;;;6.42;58.05;95109.00;5005500;28;20192;-70
2022/11/29 09:28:01;;;;;;;5.03;2.70;;;;;;;6.44;58.16;95112.28;4997037;28;20199;-68
2022/11/29 09:30:30;;;;;;;3.50;2.53;;;;;;;6.40;58.38;95102.09;5005476;28;20222;-72
2022/11/29 09:32:58;;;;;;;4.00;2.80;;;;;;;6.37;58.62;95098.91;5006748;28;20228;-72
2022/11/29 09:35:24;;;;;;;2.83;2.30;;;;;;;6.30;58.42;95095.94;5004307;28;20222;-68
2022/11/29 09:37:49;;;;;;;4.23;2.30;;;;;;;6.47;58.51;95097.22;5011536;28;20195;-70
2022/11/29 09:40:23;;;;;;;4.03;2.87;;;;;;;6.47;58.24;95092.00;5018878;28;20225;-69
2022/11/29 09:42:58;;;;;;;7.17;3.13;;;;;;;6.52;58.06;95084.63;5026059;28;20201;-71
2022/11/29 09:45:30;;;;;;;6.27;3.00;;;;;;;6.60;57.98;95076.97;5029185;28;20192;-71
2022/11/29 09:48:20;;;;;;;5.30;2.93;;;;;;;6.63;58.56;95083.72;5027991;28;20220;-69
2022/11/29 09:50:51;;;;;;;5.30;3.00;;;;;;;6.49;58.82;95076.19;5020204;28;20192;-61
2022/11/29 09:53:38;;;;;;;4.97;3.00;;;;;;;6.45;58.88;95077.41;5025626;28;20241;-70
2022/11/29 09:56:19;;;;;;;4.70;3.47;;;;;;;6.63;58.50;95071.50;5025910;28;20189;-70
2022/11/29 09:58:57;;;;;;;5.37;3.90;;;;;;;6.80;58.13;95061.41;5028596;28;20205;-69
2022/11/29 10:01:27;;;;;;;8.00;4.10;;;;;;;6.87;57.86;95067.81;5021728;28;20228;-70
2022/11/29 10:03:57;;;;;;;10.13;3.97;;;;;;;6.83;57.99;95069.00;5028266;28;20209;-70
2022/11/29 10:06:35;;;;;;;6.93;3.77;;;;;;;6.85;57.84;95059.25;5029097;28;20197;-70
2022/11/29 10:09:21;;;;;;;4.03;3.30;;;;;;;6.90;57.80;95059.72;5020967;28;20186;-71
2022/11/29 10:12:00;;;;;;;2.87;2.47;;;;;;;6.91;57.49;95056.13;5020739;28;20189;-68
2022/11/29 10:14:50;;;;;;;3.40;2.93;;;;;;;7.06;57.23;95057.47;5018289;28;20276;-68
2022/11/29 10:17:40;;;;;;;7.37;3.20;;;;;;;6.96;57.67;95051.34;5023156;28;20198;-70
2022/11/29 10:20:19;;;;;;;7.00;4.03;;;;;;;7.16;57.23;95054.06;5020891;28;20194;-70
2022/11/29 10:22:53;;;;;;;4.87;3.67;;;;;;;7.28;56.72;95045.19;5027107;28;20288;-70
2022/11/29 10:25:32;;;;;;;3.40;2.63;;;;;;;7.17;56.85;95048.69;5017675;28;20212;-70
2022/11/29 10:27:57;;;;;;;4.33;2.87;;;;;;;7.26;56.63;95050.53;5035290;28;20186;-70
2022/11/29 10:30:23;;;;;;;3.43;3.13;;;;;;;7.20;56.88;95042.38;5021606;28;20197;-68
2022/11/29 10:32:55;;;;;;;4.57;2.93;;;;;;;7.18;57.10;95057.38;5034370;28;20190;-70
2022/11/29 10:35:21;;;;;;;5.40;3.37;;;;;;;7.34;56.55;95043.81;5017816;28;20550;-70
2022/11/29 10:37:51;;;;;;;6.00;3.80;;;;;;;7.49;56.19;95038.09;5020842;28;20185;-69
2022/11/29 10:40:21;;;;;;;3.80;3.40;;;;;;;7.51;56.36;95043.19;5001828;28;20195;-70
2022/11/29 10:42:53;;;;;;;4.27;3.57;;;;;;;7.33;56.62;95036.94;5009382;28;20249;-70
2022/11/29 10:45:22;;;;;;;4.23;3.50;;;;;;;7.43;56.49;95038.63;5001173;28;20198;-70
2022/11/29 10:47:51;;;;;;;4.53;3.90;;;;;;;7.62;55.89;95039.66;5010529;28;20222;-70
2022/11/29 10:50:21;;;;;;;5.87;4.07;;;;;;;7.66;56.21;95039.25;5006614;28;20249;-70
2022/11/29 10:52:46;;;;;;;4.47;3.63;;;;;;;7.61;56.39;95040.63;5007557;28;20186;-70
2022/11/29 10:55:14;;;;;;;5.50;3.97;;;;;;;7.54;56.50;95036.84;5005910;28;20306;-70
2022/11/29 10:58:10;;;;;;;5.40;4.00;;;;;;;7.50;57.29;95039.75;4999840;28;20198;-69
2022/11/29 11:01:06;;;;;;;4.50;3.93;;;;;;;7.55;57.49;95031.50;5006577;28;20595;-69
2022/11/29 11:03:42;;;;;;;4.70;3.93;;;;;;;7.44;57.60;95031.63;5007646;28;20219;-69
2022/11/29 11:06:19;;;;;;;5.67;3.60;;;;;;;7.43;57.98;95022.94;5009525;28;20194;-70
2022/11/29 11:09:10;;;;;;;5.53;3.93;;;;;;;7.29;58.94;95025.91;5002988;28;20219;-67
2022/11/29 11:11:37;;;;;;;4.53;3.60;;;;;;;7.14;59.60;95022.00;5003498;28;20192;-66
2022/11/29 11:14:26;;;;;;;6.47;3.73;;;;;;;7.18;59.76;95018.16;5010467;28;20328;-67
2022/11/29 11:16:52;;;;;;;6.50;4.47;;;;;;;7.04;59.97;95029.78;4976761;28;20604;-67
2022/11/29 11:19:33;;;;;;;5.97;4.37;;;;;;;7.00;60.14;95033.59;5013406;28;20222;-67
2022/11/29 11:22:03;;;;;;;6.57;5.10;;;;;;;6.69;60.70;95030.97;5005543;28;20234;-67
2022/11/29 11:24:31;;;;;;;6.10;4.70;;;;;;;6.64;61.25;95030.50;5008429;28;20202;-67
2022/11/29 11:26:57;;;;;;;8.57;4.80;;;;;;;6.66;61.14;95039.06;5007082;28;20199;-67
2022/11/29 11:29:43;;;;;;;6.53;4.27;;;;;;;6.72;61.46;95045.56;5025593;28;20183;-68
2022/11/29 11:32:19;;;;;;;4.47;3.60;;;;;;;6.68;61.13;95051.97;5010352;28;20285;-67
2022/11/29 11:34:52;;;;;;;7.87;3.60;;;;;;;6.82;61.09;95044.66;5009262;28;20249;-68
2022/11/29 11:37:22;;;;;;;4.10;3.57;;;;;;;6.84;60.56;95041.91;4998773;28;20199;-68
2022/11/29 11:39:55;;;;;;;5.50;3.23;;;;;;;6.84;60.57;95042.75;5013197;28;20326;-70
2022/11/29 11:42:41;;;;;;;4.70;3.20;;;;;;;6.93;60.64;95046.38;5006166;28;20225;-69
2022/11/29 11:45:09;;;;;;;5.30;3.20;;;;;;;7.00;60.17;95046.66;5000295;28;20195;-70
2022/11/29 11:47:41;;;;;;;6.77;2.93;;;;;;;6.97;60.18;95044.31;5002056;28;20300;-70
2022/11/29 11:50:12;;;;;;;3.97;2.73;;;;;;;7.05;59.64;95044.50;5015389;28;20245;-70
2022/11/29 11:52:52;;;;;;;3.67;2.70;;;;;;;6.99;59.86;95045.84;5016632;28;20198;-68
2022/11/29 11:55:20;;;;;;;6.00;3.23;;;;;;;6.91;60.09;95042.22;4999508;28;20187;-68
2022/11/29 11:57:56;;;;;;;3.10;2.80;;;;;;;6.94;60.19;95036.75;5009223;28;20218;-69
2022/11/29 12:00:52;;;;;;;4.73;3.47;;;;;;;6.93;60.16;95043.75;5009439;28;20190;-66
2022/11/29 12:03:29;;;;;;;4.53;3.47;;;;;;;6.87;60.37;95044.28;5009070;28;20274;-67
2022/11/29 12:06:04;;;;;;;4.03;3.47;;;;;;;6.93;60.15;95051.59;5010793;28;20194;-67
2022/11/29 12:08:31;;;;;;;6.37;3.80;;;;;;;6.92;60.01;95039.47;5008993;28;20269;-67
2022/11/29 12:11:01;;;;;;;7.67;3.80;;;;;;;6.92;60.21;95036.84;5002960;28;20187;-69
2022/11/29 12:13:31;;;;;;;4.20;3.53;;;;;;;6.88;60.45;95037.25;5006580;28;20576;-68
2022/11/29 12:16:02;;;;;;;6.50;3.60;;;;;;;6.86;60.48;95040.00;5006543;28;20187;-67
2022/11/29 12:18:39;;;;;;;7.87;3.47;;;;;;;6.92;60.59;95042.09;4982473;28;20238;-69
2022/11/29 12:21:13;;;;;;;8.63;3.80;;;;;;;6.93;60.54;95035.91;5009799;28;20186;-71
2022/11/29 12:23:53;;;;;;;3.50;2.97;;;;;;;6.94;60.76;95034.13;5000455;28;20234;-69
2022/11/29 12:26:27;;;;;;;4.37;2.93;;;;;;;6.84;60.43;95031.44;4999813;28;20310;-69
2022/11/29 12:28:53;;;;;;;4.67;3.27;;;;;;;6.78;60.85;95034.59;4999891;28;20188;-70